sensor_id;sensor_type;location;lat;lon;timestamp;temperature;humidity
75457;SHT31;64036;48.266;14.192;2023-06-14T00:00:58;14.96;47.81
75457;SHT31;64036;48.266;14.192;2023-06-14T00:03:24;14.94;47.96
75457;SHT31;64036;48.266;14.192;2023-06-14T00:05:51;14.89;48.25
75457;SHT31;64036;48.266;14.192;2023-06-14T00:08:16;14.87;47.98
75457;SHT31;64036;48.266;14.192;2023-06-14T00:10:44;14.86;47.96
75457;SHT31;64036;48.266;14.192;2023-06-14T00:13:10;14.86;48.01
75457;SHT31;64036;48.266;14.192;2023-06-14T00:15:36;14.83;48.23
75457;SHT31;64036;48.266;14.192;2023-06-14T00:18:02;14.77;48.46
75457;SHT31;64036;48.266;14.192;2023-06-14T00:20:29;14.70;49.09
75457;SHT31;64036;48.266;14.192;2023-06-14T00:22:57;14.65;49.14
75457;SHT31;64036;48.266;14.192;2023-06-14T00:25:25;14.61;49.33
75457;SHT31;64036;48.266;14.192;2023-06-14T00:27:51;14.55;49.90
75457;SHT31;64036;48.266;14.192;2023-06-14T00:30:17;14.46;50.35
75457;SHT31;64036;48.266;14.192;2023-06-14T00:32:44;14.42;49.78
75457;SHT31;64036;48.266;14.192;2023-06-14T00:35:10;14.40;49.63
75457;SHT31;64036;48.266;14.192;2023-06-14T00:37:37;14.38;49.57
75457;SHT31;64036;48.266;14.192;2023-06-14T00:40:03;14.35;49.62
75457;SHT31;64036;48.266;14.192;2023-06-14T00:42:30;14.31;49.86
75457;SHT31;64036;48.266;14.192;2023-06-14T00:44:56;14.28;50.32
75457;SHT31;64036;48.266;14.192;2023-06-14T00:47:22;14.23;50.74
75457;SHT31;64036;48.266;14.192;2023-06-14T00:49:52;14.21;50.66
75457;SHT31;64036;48.266;14.192;2023-06-14T00:52:19;14.19;50.86
75457;SHT31;64036;48.266;14.192;2023-06-14T00:54:45;14.15;51.09
75457;SHT31;64036;48.266;14.192;2023-06-14T00:57:12;14.15;51.22
75457;SHT31;64036;48.266;14.192;2023-06-14T00:59:41;14.12;51.56
75457;SHT31;64036;48.266;14.192;2023-06-14T01:02:09;14.08;51.71
75457;SHT31;64036;48.266;14.192;2023-06-14T01:04:35;14.07;51.86
75457;SHT31;64036;48.266;14.192;2023-06-14T01:07:15;14.04;52.09
75457;SHT31;64036;48.266;14.192;2023-06-14T01:15:56;13.94;52.83
75457;SHT31;64036;48.266;14.192;2023-06-14T01:18:22;13.90;53.49
75457;SHT31;64036;48.266;14.192;2023-06-14T01:20:49;13.85;53.72
75457;SHT31;64036;48.266;14.192;2023-06-14T01:23:18;13.80;54.34
75457;SHT31;64036;48.266;14.192;2023-06-14T01:25:46;13.73;54.46
75457;SHT31;64036;48.266;14.192;2023-06-14T01:28:17;13.68;54.96
75457;SHT31;64036;48.266;14.192;2023-06-14T01:30:46;13.63;55.44
75457;SHT31;64036;48.266;14.192;2023-06-14T01:33:21;13.58;55.72
75457;SHT31;64036;48.266;14.192;2023-06-14T01:35:49;13.49;56.16
75457;SHT31;64036;48.266;14.192;2023-06-14T01:38:17;13.38;57.43
75457;SHT31;64036;48.266;14.192;2023-06-14T01:40:45;13.23;57.97
75457;SHT31;64036;48.266;14.192;2023-06-14T01:43:13;13.16;58.11
75457;SHT31;64036;48.266;14.192;2023-06-14T01:45:41;13.05;58.66
75457;SHT31;64036;48.266;14.192;2023-06-14T01:48:08;12.95;58.71
75457;SHT31;64036;48.266;14.192;2023-06-14T01:50:34;12.88;59.06
75457;SHT31;64036;48.266;14.192;2023-06-14T01:53:00;12.82;59.19
75457;SHT31;64036;48.266;14.192;2023-06-14T01:55:26;12.75;59.50
75457;SHT31;64036;48.266;14.192;2023-06-14T01:57:52;12.71;59.69
75457;SHT31;64036;48.266;14.192;2023-06-14T02:00:19;12.65;60.10
75457;SHT31;64036;48.266;14.192;2023-06-14T02:02:46;12.54;61.14
75457;SHT31;64036;48.266;14.192;2023-06-14T02:05:12;12.42;61.59
75457;SHT31;64036;48.266;14.192;2023-06-14T02:07:38;12.37;61.59
75457;SHT31;64036;48.266;14.192;2023-06-14T02:10:05;12.34;61.71
75457;SHT31;64036;48.266;14.192;2023-06-14T02:12:32;12.30;62.03
75457;SHT31;64036;48.266;14.192;2023-06-14T02:14:57;12.27;61.91
75457;SHT31;64036;48.266;14.192;2023-06-14T02:17:23;12.27;62.12
75457;SHT31;64036;48.266;14.192;2023-06-14T02:19:50;12.22;62.73
75457;SHT31;64036;48.266;14.192;2023-06-14T02:22:16;12.15;63.06
75457;SHT31;64036;48.266;14.192;2023-06-14T02:24:42;12.10;63.14
75457;SHT31;64036;48.266;14.192;2023-06-14T02:27:08;12.05;63.29
75457;SHT31;64036;48.266;14.192;2023-06-14T02:29:35;11.99;63.16
75457;SHT31;64036;48.266;14.192;2023-06-14T02:32:02;11.97;63.09
75457;SHT31;64036;48.266;14.192;2023-06-14T02:34:28;11.98;62.86
75457;SHT31;64036;48.266;14.192;2023-06-14T02:36:54;11.99;62.94
75457;SHT31;64036;48.266;14.192;2023-06-14T02:39:20;11.97;63.11
75457;SHT31;64036;48.266;14.192;2023-06-14T02:41:48;11.95;63.19
75457;SHT31;64036;48.266;14.192;2023-06-14T02:44:20;11.93;63.26
75457;SHT31;64036;48.266;14.192;2023-06-14T02:46:53;11.91;63.40
75457;SHT31;64036;48.266;14.192;2023-06-14T02:49:20;11.90;63.40
75457;SHT31;64036;48.266;14.192;2023-06-14T02:51:47;11.90;63.47
75457;SHT31;64036;48.266;14.192;2023-06-14T02:54:12;11.89;63.98
75457;SHT31;64036;48.266;14.192;2023-06-14T02:56:38;11.86;64.14
75457;SHT31;64036;48.266;14.192;2023-06-14T02:59:04;11.82;64.10
75457;SHT31;64036;48.266;14.192;2023-06-14T03:01:30;11.80;64.12
75457;SHT31;64036;48.266;14.192;2023-06-14T03:03:59;11.81;63.95
75457;SHT31;64036;48.266;14.192;2023-06-14T03:06:28;11.84;63.98
75457;SHT31;64036;48.266;14.192;2023-06-14T03:08:58;11.85;64.17
75457;SHT31;64036;48.266;14.192;2023-06-14T03:11:26;11.81;64.69
75457;SHT31;64036;48.266;14.192;2023-06-14T03:13:53;11.78;64.83
75457;SHT31;64036;48.266;14.192;2023-06-14T03:16:19;11.73;65.05
75457;SHT31;64036;48.266;14.192;2023-06-14T03:18:47;11.72;65.09
75457;SHT31;64036;48.266;14.192;2023-06-14T03:21:17;11.74;64.97
75457;SHT31;64036;48.266;14.192;2023-06-14T03:23:45;11.75;65.14
75457;SHT31;64036;48.266;14.192;2023-06-14T03:26:12;11.76;65.32
75457;SHT31;64036;48.266;14.192;2023-06-14T03:28:39;11.75;65.49
75457;SHT31;64036;48.266;14.192;2023-06-14T03:31:08;11.75;65.19
75457;SHT31;64036;48.266;14.192;2023-06-14T03:33:34;11.81;64.84
75457;SHT31;64036;48.266;14.192;2023-06-14T03:36:00;11.88;64.81
75457;SHT31;64036;48.266;14.192;2023-06-14T03:38:27;11.94;65.14
75457;SHT31;64036;48.266;14.192;2023-06-14T03:40:53;11.99;65.48
75457;SHT31;64036;48.266;14.192;2023-06-14T03:43:19;12.01;65.56
75457;SHT31;64036;48.266;14.192;2023-06-14T03:45:44;12.07;65.30
75457;SHT31;64036;48.266;14.192;2023-06-14T03:48:10;12.17;64.82
75457;SHT31;64036;48.266;14.192;2023-06-14T03:50:36;12.31;64.63
75457;SHT31;64036;48.266;14.192;2023-06-14T03:53:05;12.42;65.06
75457;SHT31;64036;48.266;14.192;2023-06-14T03:55:31;12.48;65.28
75457;SHT31;64036;48.266;14.192;2023-06-14T03:57:58;12.54;65.46
75457;SHT31;64036;48.266;14.192;2023-06-14T04:00:25;12.61;65.29
75457;SHT31;64036;48.266;14.192;2023-06-14T04:02:51;12.74;65.40
75457;SHT31;64036;48.266;14.192;2023-06-14T04:05:17;12.91;65.64
75457;SHT31;64036;48.266;14.192;2023-06-14T04:07:44;13.11;65.33
75457;SHT31;64036;48.266;14.192;2023-06-14T04:10:11;13.42;65.02
75457;SHT31;64036;48.266;14.192;2023-06-14T04:12:38;13.94;64.15
75457;SHT31;64036;48.266;14.192;2023-06-14T04:15:05;14.56;63.28
75457;SHT31;64036;48.266;14.192;2023-06-14T04:17:32;15.13;62.15
75457;SHT31;64036;48.266;14.192;2023-06-14T04:20:01;15.62;61.30
75457;SHT31;64036;48.266;14.192;2023-06-14T04:22:30;16.23;60.75
75457;SHT31;64036;48.266;14.192;2023-06-14T04:24:57;16.91;59.67
75457;SHT31;64036;48.266;14.192;2023-06-14T04:27:25;17.50;58.08
75457;SHT31;64036;48.266;14.192;2023-06-14T04:29:52;18.05;56.04
75457;SHT31;64036;48.266;14.192;2023-06-14T04:32:25;18.56;55.56
75457;SHT31;64036;48.266;14.192;2023-06-14T04:34:55;19.10;54.60
75457;SHT31;64036;48.266;14.192;2023-06-14T04:37:22;19.55;53.65
75457;SHT31;64036;48.266;14.192;2023-06-14T04:39:48;20.02;52.38
75457;SHT31;64036;48.266;14.192;2023-06-14T04:42:15;20.44;51.40
75457;SHT31;64036;48.266;14.192;2023-06-14T04:44:41;20.85;49.95
75457;SHT31;64036;48.266;14.192;2023-06-14T04:47:08;21.35;49.49
75457;SHT31;64036;48.266;14.192;2023-06-14T04:49:37;21.84;47.78
75457;SHT31;64036;48.266;14.192;2023-06-14T04:52:05;22.20;46.72
75457;SHT31;64036;48.266;14.192;2023-06-14T04:54:32;22.63;46.09
75457;SHT31;64036;48.266;14.192;2023-06-14T04:56:58;22.98;45.12
75457;SHT31;64036;48.266;14.192;2023-06-14T04:59:24;23.26;44.91
75457;SHT31;64036;48.266;14.192;2023-06-14T05:01:50;23.63;44.57
75457;SHT31;64036;48.266;14.192;2023-06-14T05:04:18;23.87;43.02
75457;SHT31;64036;48.266;14.192;2023-06-14T05:06:45;24.00;42.32
75457;SHT31;64036;48.266;14.192;2023-06-14T05:09:12;24.44;41.90
75457;SHT31;64036;48.266;14.192;2023-06-14T05:11:39;24.82;40.75
75457;SHT31;64036;48.266;14.192;2023-06-14T05:14:05;25.04;40.39
75457;SHT31;64036;48.266;14.192;2023-06-14T05:16:31;25.21;38.88
75457;SHT31;64036;48.266;14.192;2023-06-14T05:18:57;25.07;38.23
75457;SHT31;64036;48.266;14.192;2023-06-14T05:21:23;24.83;37.01
75457;SHT31;64036;48.266;14.192;2023-06-14T05:23:49;24.51;37.79
75457;SHT31;64036;48.266;14.192;2023-06-14T05:26:16;24.62;38.24
75457;SHT31;64036;48.266;14.192;2023-06-14T05:28:42;24.68;37.70
75457;SHT31;64036;48.266;14.192;2023-06-14T05:31:07;24.92;37.61
75457;SHT31;64036;48.266;14.192;2023-06-14T05:33:33;25.19;37.30
75457;SHT31;64036;48.266;14.192;2023-06-14T05:35:59;25.47;37.20
75457;SHT31;64036;48.266;14.192;2023-06-14T05:38:24;25.72;36.44
75457;SHT31;64036;48.266;14.192;2023-06-14T05:40:50;25.91;36.28
75457;SHT31;64036;48.266;14.192;2023-06-14T05:43:16;26.25;36.24
75457;SHT31;64036;48.266;14.192;2023-06-14T05:45:42;26.57;35.80
75457;SHT31;64036;48.266;14.192;2023-06-14T05:48:07;26.75;35.43
75457;SHT31;64036;48.266;14.192;2023-06-14T05:50:33;27.00;35.16
75457;SHT31;64036;48.266;14.192;2023-06-14T05:52:58;27.28;34.05
75457;SHT31;64036;48.266;14.192;2023-06-14T05:55:24;27.70;33.56
75457;SHT31;64036;48.266;14.192;2023-06-14T05:57:50;28.46;32.90
75457;SHT31;64036;48.266;14.192;2023-06-14T06:00:16;28.98;32.67
75457;SHT31;64036;48.266;14.192;2023-06-14T06:02:43;29.34;31.47
75457;SHT31;64036;48.266;14.192;2023-06-14T06:05:10;29.39;30.94
75457;SHT31;64036;48.266;14.192;2023-06-14T06:07:36;29.15;31.20
75457;SHT31;64036;48.266;14.192;2023-06-14T06:10:05;29.15;31.71
75457;SHT31;64036;48.266;14.192;2023-06-14T06:12:31;29.36;30.65
75457;SHT31;64036;48.266;14.192;2023-06-14T06:14:58;29.26;30.70
75457;SHT31;64036;48.266;14.192;2023-06-14T06:17:24;29.65;30.63
75457;SHT31;64036;48.266;14.192;2023-06-14T06:19:51;30.08;29.92
75457;SHT31;64036;48.266;14.192;2023-06-14T06:22:17;29.95;29.91
75457;SHT31;64036;48.266;14.192;2023-06-14T06:24:42;30.03;29.69
75457;SHT31;64036;48.266;14.192;2023-06-14T06:27:08;30.41;29.73
75457;SHT31;64036;48.266;14.192;2023-06-14T06:29:34;30.85;29.08
75457;SHT31;64036;48.266;14.192;2023-06-14T06:32:01;31.35;28.47
75457;SHT31;64036;48.266;14.192;2023-06-14T06:34:27;31.43;27.94
75457;SHT31;64036;48.266;14.192;2023-06-14T06:36:53;31.74;27.93
75457;SHT31;64036;48.266;14.192;2023-06-14T06:39:19;32.22;27.56
75457;SHT31;64036;48.266;14.192;2023-06-14T06:41:44;32.49;27.33
75457;SHT31;64036;48.266;14.192;2023-06-14T06:44:10;32.86;27.06
75457;SHT31;64036;48.266;14.192;2023-06-14T06:46:36;33.15;26.49
75457;SHT31;64036;48.266;14.192;2023-06-14T06:49:05;33.69;26.16
75457;SHT31;64036;48.266;14.192;2023-06-14T06:51:32;33.89;25.70
75457;SHT31;64036;48.266;14.192;2023-06-14T06:53:57;34.34;25.56
75457;SHT31;64036;48.266;14.192;2023-06-14T06:56:23;34.89;25.08
75457;SHT31;64036;48.266;14.192;2023-06-14T06:58:49;35.21;24.62
75457;SHT31;64036;48.266;14.192;2023-06-14T07:01:16;35.44;24.55
75457;SHT31;64036;48.266;14.192;2023-06-14T07:03:42;35.70;24.11
75457;SHT31;64036;48.266;14.192;2023-06-14T07:06:08;35.83;24.21
75457;SHT31;64036;48.266;14.192;2023-06-14T07:08:35;35.69;23.61
75457;SHT31;64036;48.266;14.192;2023-06-14T07:11:03;35.69;23.76
75457;SHT31;64036;48.266;14.192;2023-06-14T07:13:30;35.79;23.10
75457;SHT31;64036;48.266;14.192;2023-06-14T07:15:59;35.59;23.18
75457;SHT31;64036;48.266;14.192;2023-06-14T07:18:26;35.06;24.34
75457;SHT31;64036;48.266;14.192;2023-06-14T07:20:52;35.57;24.24
75457;SHT31;64036;48.266;14.192;2023-06-14T07:23:19;36.19;23.68
75457;SHT31;64036;48.266;14.192;2023-06-14T07:25:46;36.60;23.76
75457;SHT31;64036;48.266;14.192;2023-06-14T07:28:12;36.93;23.05
75457;SHT31;64036;48.266;14.192;2023-06-14T07:30:37;37.25;22.92
75457;SHT31;64036;48.266;14.192;2023-06-14T07:33:03;37.38;22.70
75457;SHT31;64036;48.266;14.192;2023-06-14T07:35:29;37.43;22.27
75457;SHT31;64036;48.266;14.192;2023-06-14T07:37:54;37.58;22.28
75457;SHT31;64036;48.266;14.192;2023-06-14T07:40:20;37.03;22.08
75457;SHT31;64036;48.266;14.192;2023-06-14T07:42:46;36.84;22.73
75457;SHT31;64036;48.266;14.192;2023-06-14T07:45:13;37.26;22.68
75457;SHT31;64036;48.266;14.192;2023-06-14T07:47:39;37.63;22.28
75457;SHT31;64036;48.266;14.192;2023-06-14T07:50:05;37.95;22.00
75457;SHT31;64036;48.266;14.192;2023-06-14T07:52:31;37.75;21.71
75457;SHT31;64036;48.266;14.192;2023-06-14T07:54:57;36.97;21.86
75457;SHT31;64036;48.266;14.192;2023-06-14T07:57:24;36.20;22.32
75457;SHT31;64036;48.266;14.192;2023-06-14T07:59:50;35.67;23.36
75457;SHT31;64036;48.266;14.192;2023-06-14T08:02:15;35.34;23.47
75457;SHT31;64036;48.266;14.192;2023-06-14T08:04:41;35.53;23.48
75457;SHT31;64036;48.266;14.192;2023-06-14T08:07:07;36.07;23.06
75457;SHT31;64036;48.266;14.192;2023-06-14T08:09:33;35.44;23.79
75457;SHT31;64036;48.266;14.192;2023-06-14T08:12:02;35.29;23.75
75457;SHT31;64036;48.266;14.192;2023-06-14T08:14:32;35.33;23.50
75457;SHT31;64036;48.266;14.192;2023-06-14T08:16:59;35.64;23.67
75457;SHT31;64036;48.266;14.192;2023-06-14T08:19:25;35.90;23.18
75457;SHT31;64036;48.266;14.192;2023-06-14T08:21:50;35.72;23.31
75457;SHT31;64036;48.266;14.192;2023-06-14T08:24:16;35.77;23.66
75457;SHT31;64036;48.266;14.192;2023-06-14T08:26:43;35.29;23.79
75457;SHT31;64036;48.266;14.192;2023-06-14T08:29:09;35.29;24.40
75457;SHT31;64036;48.266;14.192;2023-06-14T08:31:35;35.79;23.80
75457;SHT31;64036;48.266;14.192;2023-06-14T08:34:01;36.05;23.43
75457;SHT31;64036;48.266;14.192;2023-06-14T08:36:27;35.98;23.31
75457;SHT31;64036;48.266;14.192;2023-06-14T08:38:52;35.42;23.51
75457;SHT31;64036;48.266;14.192;2023-06-14T08:41:21;34.98;23.97
75457;SHT31;64036;48.266;14.192;2023-06-14T08:43:49;34.45;24.32
75457;SHT31;64036;48.266;14.192;2023-06-14T08:46:17;34.76;24.83
75457;SHT31;64036;48.266;14.192;2023-06-14T08:48:51;35.45;24.14
75457;SHT31;64036;48.266;14.192;2023-06-14T08:51:18;35.45;23.85
75457;SHT31;64036;48.266;14.192;2023-06-14T08:53:57;35.08;24.04
75457;SHT31;64036;48.266;14.192;2023-06-14T08:56:28;35.11;24.10
75457;SHT31;64036;48.266;14.192;2023-06-14T08:58:56;35.33;24.31
75457;SHT31;64036;48.266;14.192;2023-06-14T09:01:28;34.85;24.30
75457;SHT31;64036;48.266;14.192;2023-06-14T09:03:54;34.90;24.36
75457;SHT31;64036;48.266;14.192;2023-06-14T09:06:22;34.91;24.82
75457;SHT31;64036;48.266;14.192;2023-06-14T09:08:50;35.18;24.77
75457;SHT31;64036;48.266;14.192;2023-06-14T09:11:17;35.20;24.78
75457;SHT31;64036;48.266;14.192;2023-06-14T09:13:44;34.73;24.73
75457;SHT31;64036;48.266;14.192;2023-06-14T09:16:11;34.01;25.51
75457;SHT31;64036;48.266;14.192;2023-06-14T09:18:38;33.73;25.58
75457;SHT31;64036;48.266;14.192;2023-06-14T09:21:13;33.92;25.57
75457;SHT31;64036;48.266;14.192;2023-06-14T09:23:41;34.10;26.14
75457;SHT31;64036;48.266;14.192;2023-06-14T09:26:17;34.32;25.58
75457;SHT31;64036;48.266;14.192;2023-06-14T09:28:48;34.13;25.47
75457;SHT31;64036;48.266;14.192;2023-06-14T09:31:19;34.08;25.31
75457;SHT31;64036;48.266;14.192;2023-06-14T09:33:47;34.12;25.74
75457;SHT31;64036;48.266;14.192;2023-06-14T09:36:22;33.63;26.06
75457;SHT31;64036;48.266;14.192;2023-06-14T09:38:55;33.25;26.50
75457;SHT31;64036;48.266;14.192;2023-06-14T09:41:40;33.32;25.94
75457;SHT31;64036;48.266;14.192;2023-06-14T09:44:08;33.03;26.28
75457;SHT31;64036;48.266;14.192;2023-06-14T09:46:35;32.84;25.78
75457;SHT31;64036;48.266;14.192;2023-06-14T09:49:02;32.59;25.77
75457;SHT31;64036;48.266;14.192;2023-06-14T09:51:29;32.71;25.99
75457;SHT31;64036;48.266;14.192;2023-06-14T09:53:59;32.70;26.09
75457;SHT31;64036;48.266;14.192;2023-06-14T09:56:30;32.47;26.20
75457;SHT31;64036;48.266;14.192;2023-06-14T09:59:10;32.62;27.19
75457;SHT31;64036;48.266;14.192;2023-06-14T10:01:41;32.43;27.02
75457;SHT31;64036;48.266;14.192;2023-06-14T10:04:09;31.56;27.51
75457;SHT31;64036;48.266;14.192;2023-06-14T10:06:42;31.20;27.99
75457;SHT31;64036;48.266;14.192;2023-06-14T10:09:11;30.78;28.28
75457;SHT31;64036;48.266;14.192;2023-06-14T10:11:37;30.81;28.79
75457;SHT31;64036;48.266;14.192;2023-06-14T10:14:09;30.51;28.94
75457;SHT31;64036;48.266;14.192;2023-06-14T10:16:52;30.10;29.11
75457;SHT31;64036;48.266;14.192;2023-06-14T10:19:41;29.98;30.55
75457;SHT31;64036;48.266;14.192;2023-06-14T10:22:18;29.89;30.15
75457;SHT31;64036;48.266;14.192;2023-06-14T10:24:55;30.25;30.34
75457;SHT31;64036;48.266;14.192;2023-06-14T10:27:21;29.79;29.17
75457;SHT31;64036;48.266;14.192;2023-06-14T10:30:09;29.27;30.38
75457;SHT31;64036;48.266;14.192;2023-06-14T10:32:35;29.22;30.13
75457;SHT31;64036;48.266;14.192;2023-06-14T10:35:33;29.08;30.61
75457;SHT31;64036;48.266;14.192;2023-06-14T10:38:06;29.02;31.47
75457;SHT31;64036;48.266;14.192;2023-06-14T10:40:37;28.89;30.93
75457;SHT31;64036;48.266;14.192;2023-06-14T10:43:23;28.91;31.07
75457;SHT31;64036;48.266;14.192;2023-06-14T10:48:48;28.38;31.26
75457;SHT31;64036;48.266;14.192;2023-06-14T10:51:20;28.68;31.39
75457;SHT31;64036;48.266;14.192;2023-06-14T10:53:49;28.48;32.39
75457;SHT31;64036;48.266;14.192;2023-06-14T10:56:50;28.20;32.42
75457;SHT31;64036;48.266;14.192;2023-06-14T10:59:12;27.83;33.25
75457;SHT31;64036;48.266;14.192;2023-06-14T11:01:40;27.53;33.05
75457;SHT31;64036;48.266;14.192;2023-06-14T11:05:10;27.09;33.45
75457;SHT31;64036;48.266;14.192;2023-06-14T11:13:05;27.06;34.51
75457;SHT31;64036;48.266;14.192;2023-06-14T11:15:33;27.27;33.67
75457;SHT31;64036;48.266;14.192;2023-06-14T11:18:02;27.04;33.90
75457;SHT31;64036;48.266;14.192;2023-06-14T11:20:33;26.90;33.67
75457;SHT31;64036;48.266;14.192;2023-06-14T11:23:03;26.74;34.31
75457;SHT31;64036;48.266;14.192;2023-06-14T11:25:30;26.60;34.64
75457;SHT31;64036;48.266;14.192;2023-06-14T11:27:56;26.42;34.73
75457;SHT31;64036;48.266;14.192;2023-06-14T11:30:23;26.27;34.37
75457;SHT31;64036;48.266;14.192;2023-06-14T11:32:51;26.28;34.99
75457;SHT31;64036;48.266;14.192;2023-06-14T11:35:18;26.35;35.19
75457;SHT31;64036;48.266;14.192;2023-06-14T11:37:48;26.31;35.03
75457;SHT31;64036;48.266;14.192;2023-06-14T11:40:14;26.25;35.56
75457;SHT31;64036;48.266;14.192;2023-06-14T11:42:41;26.11;36.48
75457;SHT31;64036;48.266;14.192;2023-06-14T11:45:07;25.90;36.90
75457;SHT31;64036;48.266;14.192;2023-06-14T11:47:35;25.76;37.93
75457;SHT31;64036;48.266;14.192;2023-06-14T11:50:03;25.57;38.74
75457;SHT31;64036;48.266;14.192;2023-06-14T11:52:34;25.32;39.76
75457;SHT31;64036;48.266;14.192;2023-06-14T11:55:02;25.11;41.24
75457;SHT31;64036;48.266;14.192;2023-06-14T11:57:34;24.91;42.74
75457;SHT31;64036;48.266;14.192;2023-06-14T12:00:04;24.73;44.77
75457;SHT31;64036;48.266;14.192;2023-06-14T12:02:38;24.49;46.03
75457;SHT31;64036;48.266;14.192;2023-06-14T12:05:05;24.38;47.13
75457;SHT31;64036;48.266;14.192;2023-06-14T12:07:37;24.20;48.72
75457;SHT31;64036;48.266;14.192;2023-06-14T12:10:07;23.84;49.32
75457;SHT31;64036;48.266;14.192;2023-06-14T12:12:36;23.44;50.29
75457;SHT31;64036;48.266;14.192;2023-06-14T12:15:04;23.09;48.53
75457;SHT31;64036;48.266;14.192;2023-06-14T12:17:33;22.80;48.32
75457;SHT31;64036;48.266;14.192;2023-06-14T12:20:04;22.51;51.38
75457;SHT31;64036;48.266;14.192;2023-06-14T12:22:36;22.09;52.11
75457;SHT31;64036;48.266;14.192;2023-06-14T12:25:05;21.39;52.85
75457;SHT31;64036;48.266;14.192;2023-06-14T12:27:31;20.94;52.59
75457;SHT31;64036;48.266;14.192;2023-06-14T12:30:03;20.62;51.06
75457;SHT31;64036;48.266;14.192;2023-06-14T12:32:32;20.35;53.43
75457;SHT31;64036;48.266;14.192;2023-06-14T12:34:57;20.20;55.39
75457;SHT31;64036;48.266;14.192;2023-06-14T12:37:23;20.14;57.03
75457;SHT31;64036;48.266;14.192;2023-06-14T12:39:50;20.20;57.27
75457;SHT31;64036;48.266;14.192;2023-06-14T12:42:16;20.27;56.99
75457;SHT31;64036;48.266;14.192;2023-06-14T12:44:42;20.36;57.77
75457;SHT31;64036;48.266;14.192;2023-06-14T12:47:07;20.39;57.57
75457;SHT31;64036;48.266;14.192;2023-06-14T12:49:33;20.40;57.84
75457;SHT31;64036;48.266;14.192;2023-06-14T12:51:59;20.51;57.38
75457;SHT31;64036;48.266;14.192;2023-06-14T12:54:24;20.61;55.80
75457;SHT31;64036;48.266;14.192;2023-06-14T12:56:53;20.60;54.61
75457;SHT31;64036;48.266;14.192;2023-06-14T12:59:20;20.56;55.49
75457;SHT31;64036;48.266;14.192;2023-06-14T13:01:45;20.60;53.34
75457;SHT31;64036;48.266;14.192;2023-06-14T13:04:14;20.67;51.80
75457;SHT31;64036;48.266;14.192;2023-06-14T13:06:40;20.75;51.96
75457;SHT31;64036;48.266;14.192;2023-06-14T13:09:06;20.83;52.30
75457;SHT31;64036;48.266;14.192;2023-06-14T13:11:33;20.98;50.87
75457;SHT31;64036;48.266;14.192;2023-06-14T13:13:59;21.19;49.40
75457;SHT31;64036;48.266;14.192;2023-06-14T13:16:24;21.42;51.36
75457;SHT31;64036;48.266;14.192;2023-06-14T13:18:50;21.68;49.14
75457;SHT31;64036;48.266;14.192;2023-06-14T13:21:16;21.98;49.12
75457;SHT31;64036;48.266;14.192;2023-06-14T13:23:41;22.25;48.42
75457;SHT31;64036;48.266;14.192;2023-06-14T13:26:07;22.46;46.36
75457;SHT31;64036;48.266;14.192;2023-06-14T13:28:33;22.62;45.28
75457;SHT31;64036;48.266;14.192;2023-06-14T13:31:00;22.75;44.83
75457;SHT31;64036;48.266;14.192;2023-06-14T13:33:27;22.88;44.06
75457;SHT31;64036;48.266;14.192;2023-06-14T13:35:52;23.05;44.98
75457;SHT31;64036;48.266;14.192;2023-06-14T13:38:18;23.30;44.18
75457;SHT31;64036;48.266;14.192;2023-06-14T13:40:44;23.52;43.87
75457;SHT31;64036;48.266;14.192;2023-06-14T13:43:10;23.69;44.18
75457;SHT31;64036;48.266;14.192;2023-06-14T13:45:36;23.86;43.46
75457;SHT31;64036;48.266;14.192;2023-06-14T13:48:01;23.95;43.49
75457;SHT31;64036;48.266;14.192;2023-06-14T13:50:27;24.00;43.81
75457;SHT31;64036;48.266;14.192;2023-06-14T13:52:53;23.98;44.50
75457;SHT31;64036;48.266;14.192;2023-06-14T13:55:19;23.99;43.73
75457;SHT31;64036;48.266;14.192;2023-06-14T13:57:45;24.02;41.76
75457;SHT31;64036;48.266;14.192;2023-06-14T14:00:10;24.04;40.93
75457;SHT31;64036;48.266;14.192;2023-06-14T14:02:37;24.09;40.84
75457;SHT31;64036;48.266;14.192;2023-06-14T14:05:04;24.10;41.35
75457;SHT31;64036;48.266;14.192;2023-06-14T14:07:31;24.07;40.98
75457;SHT31;64036;48.266;14.192;2023-06-14T14:09:57;23.91;40.67
75457;SHT31;64036;48.266;14.192;2023-06-14T14:12:23;23.82;41.48
75457;SHT31;64036;48.266;14.192;2023-06-14T14:14:50;23.80;41.24
75457;SHT31;64036;48.266;14.192;2023-06-14T14:17:16;23.75;42.11
75457;SHT31;64036;48.266;14.192;2023-06-14T14:19:42;23.68;41.69
75457;SHT31;64036;48.266;14.192;2023-06-14T14:22:08;23.59;40.32
75457;SHT31;64036;48.266;14.192;2023-06-14T14:24:34;23.59;42.13
75457;SHT31;64036;48.266;14.192;2023-06-14T14:27:00;23.62;41.05
75457;SHT31;64036;48.266;14.192;2023-06-14T14:29:25;23.61;41.36
75457;SHT31;64036;48.266;14.192;2023-06-14T14:31:54;23.61;40.64
75457;SHT31;64036;48.266;14.192;2023-06-14T14:34:21;23.60;40.29
75457;SHT31;64036;48.266;14.192;2023-06-14T14:36:48;23.59;40.31
75457;SHT31;64036;48.266;14.192;2023-06-14T14:39:14;23.63;40.14
75457;SHT31;64036;48.266;14.192;2023-06-14T14:41:40;23.71;40.60
75457;SHT31;64036;48.266;14.192;2023-06-14T14:44:06;23.77;40.76
75457;SHT31;64036;48.266;14.192;2023-06-14T14:46:32;23.68;40.25
75457;SHT31;64036;48.266;14.192;2023-06-14T14:49:00;23.63;39.15
75457;SHT31;64036;48.266;14.192;2023-06-14T14:51:26;23.62;38.92
75457;SHT31;64036;48.266;14.192;2023-06-14T14:53:52;23.63;39.55
75457;SHT31;64036;48.266;14.192;2023-06-14T14:56:17;23.69;39.43
75457;SHT31;64036;48.266;14.192;2023-06-14T14:58:43;23.75;39.81
75457;SHT31;64036;48.266;14.192;2023-06-14T15:01:09;23.76;39.54
75457;SHT31;64036;48.266;14.192;2023-06-14T15:03:35;23.75;40.61
75457;SHT31;64036;48.266;14.192;2023-06-14T15:06:01;23.85;40.81
75457;SHT31;64036;48.266;14.192;2023-06-14T15:08:27;23.88;39.07
75457;SHT31;64036;48.266;14.192;2023-06-14T15:10:53;23.90;38.96
75457;SHT31;64036;48.266;14.192;2023-06-14T15:13:18;23.94;40.00
75457;SHT31;64036;48.266;14.192;2023-06-14T15:15:45;23.83;39.83
75457;SHT31;64036;48.266;14.192;2023-06-14T15:18:10;23.73;40.00
75457;SHT31;64036;48.266;14.192;2023-06-14T15:20:36;23.57;38.65
75457;SHT31;64036;48.266;14.192;2023-06-14T15:23:02;23.47;39.70
75457;SHT31;64036;48.266;14.192;2023-06-14T15:25:28;23.35;38.74
75457;SHT31;64036;48.266;14.192;2023-06-14T15:27:55;23.28;39.33
75457;SHT31;64036;48.266;14.192;2023-06-14T15:30:21;23.30;38.92
75457;SHT31;64036;48.266;14.192;2023-06-14T15:32:48;23.34;39.57